createdAt,value
2019-02-12T00:00:10.282Z,95904.86
2019-02-12T00:03:17.798Z,95905.98
2019-02-12T00:06:25.312Z,95906.34
2019-02-12T00:09:32.861Z,95905.92
2019-02-12T00:12:40.271Z,95899.94
2019-02-12T00:15:47.562Z,95897.73
2019-02-12T00:18:54.723Z,95899.13
2019-02-12T00:22:02.099Z,95906.98
2019-02-12T00:25:09.917Z,95910.44
2019-02-12T00:28:17.327Z,95921.72
2019-02-12T00:31:24.498Z,95932.67
2019-02-12T00:34:31.759Z,95923.21
2019-02-12T00:37:39.072Z,95947.69
2019-02-12T00:40:46.453Z,95953.52
2019-02-12T00:43:53.992Z,95963.13
2019-02-12T00:47:01.360Z,95964.55
2019-02-12T00:50:09.276Z,95968.36
2019-02-12T00:53:16.544Z,95967.44
2019-02-12T00:56:23.949Z,95969.81
2019-02-12T00:59:31.572Z,95970.16
2019-02-12T01:02:39.330Z,95967.80
2019-02-12T01:05:46.957Z,95982.88
2019-02-12T01:08:54.118Z,95982.88
2019-02-12T01:12:01.274Z,95986.70
2019-02-12T01:15:10.662Z,95993.12
2019-02-12T01:18:18.032Z,96002.27
2019-02-12T01:21:26.438Z,96022.87
2019-02-12T01:24:34.091Z,96015.27
2019-02-12T01:27:41.296Z,96011.13
2019-02-12T01:30:48.873Z,96011.62
2019-02-12T01:33:56.068Z,96022.25
2019-02-12T01:37:03.963Z,96020.49
2019-02-12T01:40:12.816Z,96035.66
2019-02-12T01:43:20.804Z,96033.84
2019-02-12T01:46:28.533Z,96038.99
2019-02-12T01:49:36.013Z,96040.31
2019-02-12T01:52:43.382Z,96047.13
2019-02-12T01:59:06.608Z,96044.63
2019-02-12T02:02:13.860Z,96060.83
2019-02-12T02:05:21.427Z,96071.91
2019-02-12T02:08:28.649Z,96082.80
2019-02-12T02:11:36.616Z,96083.56
2019-02-12T02:14:44.400Z,96084.30
2019-02-12T02:17:51.790Z,96085.89
2019-02-12T02:20:58.977Z,96085.50
2019-02-12T02:24:06.246Z,96075.03
2019-02-12T02:27:13.639Z,96082.14
2019-02-12T02:30:21.106Z,96074.88
2019-02-12T02:33:28.318Z,96069.98
2019-02-12T02:36:35.570Z,96071.35
2019-02-12T02:39:42.847Z,96071.57
2019-02-12T02:42:50.725Z,96081.19
2019-02-12T02:45:58.133Z,96090.45
2019-02-12T02:49:05.772Z,96085.85
2019-02-12T02:52:13.431Z,96088.98
2019-02-12T02:55:20.829Z,96096.69
2019-02-12T02:58:28.793Z,96097.89
2019-02-12T03:01:36.203Z,96102.47
2019-02-12T03:04:43.584Z,96097.95
2019-02-12T03:07:51.114Z,96090.17
2019-02-12T03:10:58.669Z,96089.38
2019-02-12T03:14:05.859Z,96079.31
2019-02-12T03:17:13.519Z,96077.36
2019-02-12T03:20:21.189Z,96067.65
2019-02-12T03:23:28.657Z,96075.39
2019-02-12T03:26:36.298Z,96082.05
2019-02-12T03:29:43.789Z,96082.54
2019-02-12T03:32:51.272Z,96087.95
2019-02-12T03:35:58.589Z,96088.98
2019-02-12T03:39:06.558Z,96087.09
2019-02-12T03:42:14.121Z,96087.38
2019-02-12T03:45:21.504Z,96088.21
2019-02-12T03:48:28.776Z,96101.47
2019-02-12T03:51:36.007Z,96117.61
2019-02-12T03:54:43.484Z,96117.09
2019-02-12T03:57:50.873Z,96128.63
2019-02-12T04:00:58.392Z,96128.78
2019-02-12T04:04:05.889Z,96129.73
2019-02-12T04:07:13.292Z,96132.28
2019-02-12T04:10:21.215Z,96132.76
2019-02-12T04:13:29.487Z,96136.68
2019-02-12T04:16:37.070Z,96131.12
2019-02-12T04:19:44.262Z,96137.52
2019-02-12T04:22:51.463Z,96142.98
2019-02-12T04:25:58.639Z,96139.52
2019-02-12T04:29:05.808Z,96138.52
2019-02-12T04:32:13.093Z,96144.75
2019-02-12T04:35:20.263Z,96152.64
2019-02-12T04:38:27.431Z,96157.53
2019-02-12T04:41:34.975Z,96147.64
2019-02-12T04:44:42.404Z,96156.44
2019-02-12T04:47:49.582Z,96163.05
2019-02-12T04:50:57.125Z,96157.10
2019-02-12T04:54:04.882Z,96164.64
2019-02-12T04:57:12.169Z,96156.52
2019-02-12T05:00:19.645Z,96158.74
2019-02-12T05:03:27.091Z,96156.36
2019-02-12T05:06:34.393Z,96158.84
2019-02-12T05:09:44.251Z,96166.91
2019-02-12T05:12:51.733Z,96164.28
2019-02-12T05:15:59.019Z,96169.07
2019-02-12T05:19:06.611Z,96161.97
2019-02-12T05:22:14.894Z,96173.30
2019-02-12T05:25:22.320Z,96172.52
2019-02-12T05:28:29.546Z,96187.08
2019-02-12T05:31:36.952Z,96189.13
2019-02-12T05:34:44.459Z,96185.55
2019-02-12T05:37:51.645Z,96184.98
2019-02-12T05:40:59.097Z,96185.13
2019-02-12T05:44:06.534Z,96190.72
2019-02-12T05:47:13.829Z,96193.91
2019-02-12T05:50:22.375Z,96196.45
2019-02-12T05:53:29.840Z,96194.36
2019-02-12T05:56:37.022Z,96195.44
2019-02-12T06:00:06.548Z,96187.88
2019-02-12T06:03:13.771Z,96193.28
2019-02-12T06:06:21.251Z,96206.98
2019-02-12T06:09:28.695Z,96207.57
2019-02-12T06:12:35.970Z,96206.75
2019-02-12T06:15:43.412Z,96216.16
2019-02-12T06:18:50.581Z,96217.89
2019-02-12T06:21:57.771Z,96224.90
2019-02-12T06:25:07.807Z,96213.14
2019-02-12T06:28:14.591Z,96214.91
2019-02-12T06:31:21.768Z,96205.91
2019-02-12T06:34:29.149Z,96225.21
2019-02-12T06:37:36.854Z,96216.86
2019-02-12T06:40:44.235Z,96226.29
2019-02-12T06:43:51.792Z,96227.25
2019-02-12T06:46:59.760Z,96229.04
2019-02-12T06:50:08.456Z,96236.88
2019-02-12T06:53:15.667Z,96240.80
2019-02-12T06:56:22.839Z,96245.66
2019-02-12T06:59:30.377Z,96250.48
2019-02-12T07:03:10.134Z,96259.09
2019-02-12T07:07:12.347Z,96259.98
2019-02-12T07:10:30.235Z,96271.00
2019-02-12T07:13:57.549Z,96264.55
2019-02-12T07:17:59.373Z,96268.25
2019-02-12T07:22:18.317Z,96280.46
2019-02-12T07:26:08.119Z,96273.64
2019-02-12T07:29:53.503Z,96287.05
2019-02-12T07:33:49.853Z,96297.82
2019-02-12T07:37:48.241Z,96308.56
2019-02-12T07:41:51.716Z,96313.50
2019-02-12T07:46:06.488Z,96331.28
2019-02-12T07:50:12.178Z,96341.08
2019-02-12T07:54:40.171Z,96344.30
2019-02-12T07:58:50.392Z,96346.11
2019-02-12T08:02:58.291Z,96357.36
2019-02-12T08:06:39.181Z,96360.20
2019-02-12T08:10:53.299Z,96360.20
2019-02-12T08:15:02.634Z,96375.20
2019-02-12T08:19:04.050Z,96368.96
2019-02-12T08:23:19.606Z,96365.74
2019-02-12T08:27:17.491Z,96365.05
2019-02-12T08:31:14.461Z,96367.80
2019-02-12T08:35:03.750Z,96368.34
2019-02-12T08:39:17.150Z,96377.48
2019-02-12T08:43:25.598Z,96381.34
2019-02-12T08:47:28.290Z,96383.55
2019-02-12T08:51:38.665Z,96382.14
2019-02-12T08:55:36.870Z,96377.30
2019-02-12T08:59:41.138Z,96382.19
2019-02-12T09:03:41.485Z,96387.11
2019-02-12T09:07:22.102Z,96396.87
2019-02-12T09:11:25.476Z,96397.71
2019-02-12T09:15:21.220Z,96402.05
2019-02-12T09:19:02.436Z,96411.64
2019-02-12T09:23:00.642Z,96406.22
2019-02-12T09:26:53.882Z,96410.53
2019-02-12T09:30:33.112Z,96424.05
2019-02-12T09:34:19.707Z,96426.83
2019-02-12T09:38:53.016Z,96431.70
2019-02-12T09:42:38.868Z,96433.83
2019-02-12T09:47:18.587Z,96423.65
2019-02-12T09:51:32.346Z,96435.20
2019-02-12T09:55:15.153Z,96429.80
2019-02-12T09:58:53.574Z,96437.27
2019-02-12T10:02:22.565Z,96432.98
2019-02-12T10:06:40.755Z,96434.72
2019-02-12T10:10:34.196Z,96439.59
2019-02-12T10:14:31.577Z,96439.82
2019-02-12T10:18:15.915Z,96438.15
2019-02-12T10:21:50.265Z,96440.25
2019-02-12T10:25:21.108Z,96442.48
2019-02-12T10:29:13.496Z,96447.50
2019-02-12T10:32:19.907Z,96446.08
2019-02-12T10:35:27.614Z,96450.13
2019-02-12T10:38:35.579Z,96446.09
2019-02-12T10:41:43.046Z,96447.28
2019-02-12T10:44:50.445Z,96443.56
2019-02-12T10:47:58.250Z,96438.05
2019-02-12T10:51:05.679Z,96439.63
2019-02-12T10:54:13.708Z,96444.03
2019-02-12T10:57:21.283Z,96440.09
2019-02-12T11:00:28.758Z,96437.81
2019-02-12T11:03:36.140Z,96442.79
2019-02-12T11:06:43.328Z,96448.19
2019-02-12T11:09:50.600Z,96444.69
2019-02-12T11:12:58.282Z,96445.27
2019-02-12T11:16:06.854Z,96443.51
2019-02-12T11:19:14.265Z,96448.42
2019-02-12T11:22:21.662Z,96439.34
2019-02-12T11:25:28.880Z,96436.85
2019-02-12T11:28:36.556Z,96445.86
2019-02-12T11:31:43.826Z,96436.73
2019-02-12T11:34:51.321Z,96445.05
2019-02-12T11:37:59.150Z,96443.19
2019-02-12T11:41:06.981Z,96436.29
2019-02-12T11:44:14.464Z,96446.75
2019-02-12T11:47:21.767Z,96444.25
2019-02-12T11:50:29.182Z,96443.28
2019-02-12T11:53:36.607Z,96442.44
2019-02-12T11:56:44.013Z,96437.69
2019-02-12T11:59:52.388Z,96441.16
2019-02-12T12:03:00.108Z,96428.50
2019-02-12T12:06:07.764Z,96440.48
2019-02-12T12:09:14.946Z,96450.52
2019-02-12T12:12:22.413Z,96451.95
2019-02-12T12:15:29.801Z,96452.11
2019-02-12T12:18:36.975Z,96455.43
2019-02-12T12:21:45.547Z,96448.36
2019-02-12T12:24:52.939Z,96459.82
2019-02-12T12:28:00.377Z,96462.83
2019-02-12T12:31:07.857Z,96466.27
2019-02-12T12:34:15.066Z,96469.16
2019-02-12T12:37:22.901Z,96469.49
2019-02-12T12:40:30.423Z,96469.12
2019-02-12T12:43:37.745Z,96474.69
2019-02-12T12:46:45.410Z,96476.08
2019-02-12T12:49:52.890Z,96474.12
2019-02-12T12:53:00.123Z,96467.96
2019-02-12T12:56:07.312Z,96471.84
2019-02-12T12:59:14.799Z,96469.40
2019-02-12T13:02:22.747Z,96470.31
2019-02-12T13:05:30.249Z,96479.72
2019-02-12T13:08:39.187Z,96479.09
2019-02-12T13:11:46.623Z,96479.72
2019-02-12T13:14:53.806Z,96469.45
2019-02-12T13:18:02.243Z,96477.33
2019-02-12T13:21:09.989Z,96485.51
2019-02-12T13:24:17.498Z,96485.68
2019-02-12T13:27:24.729Z,96493.00
2019-02-12T13:30:32.441Z,96485.69
2019-02-12T13:33:39.768Z,96484.20
2019-02-12T13:36:47.420Z,96479.18
2019-02-12T13:39:54.614Z,96475.28
2019-02-12T13:43:02.049Z,96484.38
2019-02-12T13:46:09.425Z,96489.83
2019-02-12T13:49:16.822Z,96495.78
2019-02-12T13:52:24.306Z,96499.05
2019-02-12T13:55:31.804Z,96504.34
2019-02-12T13:58:39.227Z,96494.28
2019-02-12T14:01:46.452Z,96503.70
2019-02-12T14:04:53.744Z,96501.31
2019-02-12T14:08:01.525Z,96506.80
2019-02-12T14:11:08.908Z,96508.06
2019-02-12T14:14:16.510Z,96514.25
2019-02-12T14:17:23.768Z,96510.88
2019-02-12T14:20:31.151Z,96526.21
2019-02-12T14:23:38.512Z,96526.48
2019-02-12T14:26:46.231Z,96525.88
2019-02-12T14:29:53.511Z,96533.44
2019-02-12T14:33:01.144Z,96533.05
2019-02-12T14:36:09.587Z,96530.83
2019-02-12T14:39:18.065Z,96531.67
2019-02-12T14:42:26.594Z,96533.69
2019-02-12T14:45:34.447Z,96528.59
2019-02-12T14:48:42.063Z,96535.72
2019-02-12T14:51:49.662Z,96531.64
2019-02-12T14:54:56.884Z,96533.89
2019-02-12T14:58:04.304Z,96534.55
2019-02-12T15:01:11.895Z,96532.96
2019-02-12T15:04:19.297Z,96534.26
2019-02-12T15:07:26.716Z,96533.27
2019-02-12T15:10:33.981Z,96530.71
2019-02-12T15:13:41.276Z,96527.88
2019-02-12T15:16:48.561Z,96526.67
2019-02-12T15:19:55.871Z,96524.97
2019-02-12T15:23:03.343Z,96522.14
2019-02-12T15:26:11.136Z,96527.80
2019-02-12T15:29:19.264Z,96533.80
2019-02-12T15:32:27.098Z,96534.93
2019-02-12T15:35:37.138Z,96535.58
2019-02-12T15:38:45.764Z,96529.81
2019-02-12T15:41:53.485Z,96531.28
2019-02-12T15:45:00.892Z,96533.63
2019-02-12T15:48:08.688Z,96536.52
2019-02-12T15:51:16.002Z,96540.97
2019-02-12T15:54:24.395Z,96537.74
2019-02-12T15:57:31.680Z,96539.80
2019-02-12T16:00:43.436Z,96543.19
2019-02-12T16:03:50.933Z,96539.58
2019-02-12T16:06:59.869Z,96541.53
2019-02-12T16:10:12.219Z,96551.44
2019-02-12T16:13:19.706Z,96544.73
2019-02-12T16:16:28.052Z,96548.39
2019-02-12T16:19:37.162Z,96548.22
2019-02-12T16:22:44.910Z,96554.61
2019-02-12T16:25:59.322Z,96555.64
2019-02-12T16:29:05.009Z,96562.44
2019-02-12T16:32:12.895Z,96569.32
2019-02-12T16:35:20.228Z,96574.44
2019-02-12T16:38:27.705Z,96574.44
2019-02-12T16:41:35.519Z,96584.13
2019-02-12T16:44:43.926Z,96586.00
2019-02-12T16:47:52.232Z,96588.39
2019-02-12T16:51:00.679Z,96590.25
2019-02-12T16:54:08.533Z,96593.31
2019-02-12T16:57:16.365Z,96603.10
2019-02-12T17:07:02.073Z,96619.33
2019-02-12T17:10:10.646Z,96628.65
2019-02-12T17:13:18.338Z,96632.52
2019-02-12T17:16:30.377Z,96637.02
2019-02-12T17:19:43.058Z,96638.88
2019-02-12T17:22:52.986Z,96643.73
2019-02-12T17:26:06.210Z,96647.09
2019-02-12T17:29:14.229Z,96662.16
2019-02-12T17:32:22.355Z,96665.28
2019-02-12T17:35:32.107Z,96676.38
2019-02-12T17:38:40.358Z,96683.38
2019-02-12T17:41:48.115Z,96681.20
2019-02-12T17:44:55.879Z,96686.88
2019-02-12T17:48:03.634Z,96683.38
2019-02-12T17:51:11.770Z,96677.80
2019-02-12T17:54:19.560Z,96684.97
2019-02-12T17:57:27.284Z,96692.48
2019-02-12T18:00:39.470Z,96692.89
2019-02-12T18:03:49.555Z,96690.81
2019-02-12T18:06:57.552Z,96696.44
2019-02-12T18:10:05.294Z,96702.88
2019-02-12T18:13:12.592Z,96702.61
2019-02-12T18:16:20.286Z,96701.19
2019-02-12T18:19:27.830Z,96704.02
2019-02-12T18:22:35.790Z,96703.41
2019-02-12T18:25:43.337Z,96699.61
2019-02-12T18:28:51.072Z,96704.36
2019-02-12T18:31:58.944Z,96702.28
2019-02-12T18:35:06.941Z,96706.28
2019-02-12T18:38:14.322Z,96713.95
2019-02-12T18:41:21.677Z,96722.25
2019-02-12T18:44:29.308Z,96726.11
2019-02-12T18:47:36.558Z,96718.44
2019-02-12T18:50:44.155Z,96727.57
2019-02-12T18:53:51.356Z,96737.19
2019-02-12T18:56:58.866Z,96739.00
2019-02-12T19:00:10.772Z,96748.38
2019-02-12T19:03:18.207Z,96749.97
2019-02-12T19:06:25.443Z,96751.77
2019-02-12T19:09:32.720Z,96754.52
2019-02-12T19:12:40.646Z,96758.95
2019-02-12T19:15:48.314Z,96755.66
2019-02-12T19:18:55.910Z,96753.75
2019-02-12T19:22:03.927Z,96751.52
2019-02-12T19:25:12.215Z,96747.94
2019-02-12T19:28:19.906Z,96744.30
2019-02-12T19:31:29.735Z,96748.31
2019-02-12T19:34:37.877Z,96758.75
2019-02-12T19:37:45.602Z,96760.00
2019-02-12T19:40:53.673Z,96764.45
2019-02-12T19:44:01.857Z,96769.98
2019-02-12T19:47:09.646Z,96766.04
2019-02-12T19:50:17.053Z,96770.11
2019-02-12T19:53:24.929Z,96772.80
2019-02-12T19:56:32.676Z,96777.93
2019-02-12T19:59:40.097Z,96782.23
2019-02-12T20:02:47.961Z,96789.31
2019-02-12T20:05:55.784Z,96790.63
2019-02-12T20:09:07.282Z,96787.21
2019-02-12T20:12:15.497Z,96793.59
2019-02-12T20:15:23.604Z,96785.20
2019-02-12T20:18:31.359Z,96789.06
2019-02-12T20:21:39.508Z,96783.94
2019-02-12T20:24:47.711Z,96784.86
2019-02-12T20:27:55.313Z,96787.80
2019-02-12T20:31:03.659Z,96779.38
2019-02-12T20:34:11.418Z,96779.98
2019-02-12T20:37:19.163Z,96787.11
2019-02-12T20:40:27.302Z,96791.97
2019-02-12T20:43:34.887Z,96790.77
2019-02-12T20:46:42.455Z,96792.55
2019-02-12T20:49:50.305Z,96792.70
2019-02-12T20:52:58.010Z,96783.65
2019-02-12T20:56:05.443Z,96787.22
2019-02-12T20:59:13.887Z,96785.38
2019-02-12T21:02:21.471Z,96790.31
2019-02-12T21:05:29.828Z,96787.42
2019-02-12T21:08:38.130Z,96773.25
2019-02-12T21:11:45.550Z,96773.16
2019-02-12T21:14:53.597Z,96778.17
2019-02-12T21:18:03.701Z,96775.40
2019-02-12T21:21:12.173Z,96773.27
2019-02-12T21:24:20.126Z,96770.48
2019-02-12T21:27:28.234Z,96782.04
2019-02-12T21:30:36.075Z,96778.17
2019-02-12T21:33:44.025Z,96775.50
2019-02-12T21:36:53.175Z,96769.78
2019-02-12T21:40:00.736Z,96781.20
2019-02-12T21:43:08.257Z,96789.41
2019-02-12T21:46:15.683Z,96781.68
2019-02-12T21:49:24.106Z,96767.84
2019-02-12T21:52:31.790Z,96767.16
2019-02-12T21:55:39.381Z,96785.89
2019-02-12T21:58:48.832Z,96783.21
2019-02-12T22:01:56.470Z,96782.59
2019-02-12T22:05:04.598Z,96784.15
2019-02-12T22:08:12.291Z,96782.89
2019-02-12T22:11:19.877Z,96779.28
2019-02-12T22:14:27.488Z,96786.89
2019-02-12T22:17:34.976Z,96791.05
2019-02-12T22:20:42.421Z,96791.95
2019-02-12T22:23:49.928Z,96790.44
2019-02-12T22:26:57.771Z,96786.86
2019-02-12T22:30:10.926Z,96788.67
2019-02-12T22:33:19.224Z,96779.72
2019-02-12T22:36:27.506Z,96783.98
2019-02-12T22:39:35.228Z,96788.09
2019-02-12T22:42:43.243Z,96789.71
2019-02-12T22:45:50.578Z,96783.71
2019-02-12T22:48:57.794Z,96782.89
2019-02-12T22:52:05.329Z,96782.11
2019-02-12T22:55:12.839Z,96790.22
2019-02-12T22:58:20.144Z,96785.80
2019-02-12T23:01:36.507Z,96799.31
2019-02-12T23:04:44.080Z,96790.71
2019-02-12T23:07:51.924Z,96795.00
2019-02-12T23:10:59.973Z,96794.41
2019-02-12T23:14:07.417Z,96804.20
2019-02-12T23:17:14.784Z,96796.62
2019-02-12T23:20:21.963Z,96794.72
2019-02-12T23:23:29.701Z,96791.39
2019-02-12T23:26:37.508Z,96795.85
2019-02-12T23:29:44.793Z,96793.08
2019-02-12T23:32:52.694Z,96776.50
2019-02-12T23:36:00.119Z,96770.80
2019-02-12T23:39:08.324Z,96771.11
2019-02-12T23:42:16.036Z,96764.80
2019-02-12T23:45:23.907Z,96756.12
2019-02-12T23:48:31.356Z,96769.00
2019-02-12T23:51:38.535Z,96774.12
2019-02-12T23:54:45.987Z,96780.73
2019-02-12T23:57:53.159Z,96772.41
